createdAt,value
2017-10-06T00:00:21.211Z,3.60
2017-10-06T00:02:48.791Z,2.77
2017-10-06T00:05:16.356Z,3.50
2017-10-06T00:07:43.936Z,3.40
2017-10-06T00:10:11.502Z,2.77
2017-10-06T00:12:39.830Z,2.83
2017-10-06T00:15:07.422Z,2.90
2017-10-06T00:17:35.000Z,3.10
2017-10-06T00:20:02.584Z,3.23
2017-10-06T00:22:30.175Z,3.63
2017-10-06T00:24:57.786Z,3.03
2017-10-06T00:27:25.336Z,3.03
2017-10-06T00:29:53.690Z,3.17
2017-10-06T00:32:22.057Z,3.50
2017-10-06T00:34:50.468Z,3.20
2017-10-06T00:37:18.047Z,3.00
2017-10-06T00:39:46.402Z,2.83
2017-10-06T00:42:13.983Z,3.07
2017-10-06T00:44:41.543Z,3.13
2017-10-06T00:47:09.114Z,3.03
2017-10-06T00:49:37.442Z,3.47
2017-10-06T00:52:05.019Z,2.60
2017-10-06T00:54:32.649Z,2.60
2017-10-06T00:57:00.203Z,2.83
2017-10-06T00:59:27.759Z,2.87
2017-10-06T01:01:55.382Z,2.97
2017-10-06T01:04:22.986Z,3.20
2017-10-06T01:06:50.575Z,2.77
2017-10-06T01:09:18.162Z,3.43
2017-10-06T01:11:45.748Z,2.63
2017-10-06T01:14:14.115Z,3.30
2017-10-06T01:16:42.460Z,3.63
2017-10-06T01:19:10.026Z,2.63
2017-10-06T01:21:37.615Z,3.17
2017-10-06T01:24:05.987Z,3.07
2017-10-06T01:26:33.582Z,3.37
2017-10-06T01:29:01.134Z,3.40
2017-10-06T01:31:28.711Z,2.90
2017-10-06T01:33:56.272Z,3.20
2017-10-06T01:36:24.602Z,2.83
2017-10-06T01:38:52.192Z,3.00
2017-10-06T01:41:20.813Z,3.10
2017-10-06T01:43:48.390Z,3.20
2017-10-06T01:46:16.064Z,3.33
2017-10-06T01:48:43.843Z,3.10
2017-10-06T01:51:11.416Z,2.60
2017-10-06T01:53:39.764Z,3.33
2017-10-06T01:56:07.360Z,3.00
2017-10-06T01:58:35.743Z,3.00
2017-10-06T02:01:04.079Z,2.50
2017-10-06T02:03:31.639Z,2.60
2017-10-06T02:05:59.251Z,3.40
2017-10-06T02:08:26.855Z,2.67
2017-10-06T02:10:54.506Z,2.83
2017-10-06T02:13:22.567Z,3.13
2017-10-06T02:15:50.263Z,2.77
2017-10-06T02:18:17.839Z,3.07
2017-10-06T02:20:45.429Z,2.90
2017-10-06T02:23:13.782Z,3.40
2017-10-06T02:25:41.410Z,2.70
2017-10-06T02:28:08.997Z,3.23
2017-10-06T02:30:36.656Z,2.90
2017-10-06T02:33:04.239Z,2.57
2017-10-06T02:35:32.565Z,2.70
2017-10-06T02:38:00.143Z,3.50
2017-10-06T02:40:27.731Z,2.80
2017-10-06T02:42:55.545Z,2.40
2017-10-06T02:45:23.125Z,3.67
2017-10-06T02:47:50.695Z,3.00
2017-10-06T02:50:18.282Z,3.37
2017-10-06T02:52:45.898Z,4.20
2017-10-06T02:55:13.487Z,3.20
2017-10-06T02:57:41.055Z,2.90
2017-10-06T03:00:08.730Z,3.63
2017-10-06T03:02:36.294Z,3.47
2017-10-06T03:05:11.586Z,3.10
2017-10-06T03:07:39.252Z,3.00
2017-10-06T03:10:06.850Z,3.40
2017-10-06T03:12:34.436Z,3.60
2017-10-06T03:15:07.048Z,3.37
2017-10-06T03:17:34.641Z,4.17
2017-10-06T03:20:04.984Z,3.30
2017-10-06T03:22:32.669Z,3.17
2017-10-06T03:25:01.016Z,3.50
2017-10-06T03:27:28.763Z,3.40
2017-10-06T03:29:56.422Z,3.67
2017-10-06T03:32:24.266Z,3.17
2017-10-06T03:34:51.866Z,3.47
2017-10-06T03:37:19.418Z,3.20
2017-10-06T03:39:47.012Z,3.27
2017-10-06T03:42:15.343Z,3.60
2017-10-06T03:44:43.713Z,3.20
2017-10-06T03:47:11.301Z,3.60
2017-10-06T03:49:38.871Z,3.93
2017-10-06T03:52:06.495Z,3.30
2017-10-06T03:57:08.756Z,3.60
2017-10-06T03:59:37.127Z,3.77
2017-10-06T04:02:05.498Z,3.40
2017-10-06T04:04:33.079Z,3.37
2017-10-06T04:07:01.438Z,3.57
2017-10-06T04:09:29.806Z,4.07
2017-10-06T04:11:57.389Z,4.03
2017-10-06T04:14:25.728Z,3.43
2017-10-06T04:16:53.326Z,3.53
2017-10-06T04:19:21.655Z,3.67
2017-10-06T04:21:49.222Z,3.50
2017-10-06T04:24:16.804Z,4.20
2017-10-06T04:26:44.383Z,3.80
2017-10-06T04:29:12.719Z,3.07
2017-10-06T04:31:40.295Z,3.70
2017-10-06T04:34:08.095Z,3.37
2017-10-06T04:36:36.440Z,3.60
2017-10-06T04:39:03.998Z,3.37
2017-10-06T04:41:31.620Z,3.27
2017-10-06T04:43:59.180Z,3.43
2017-10-06T04:46:26.765Z,3.03
2017-10-06T04:48:54.379Z,3.10
2017-10-06T04:51:22.702Z,2.90
2017-10-06T04:53:50.701Z,3.60
2017-10-06T04:56:18.254Z,3.23
2017-10-06T04:58:45.851Z,2.83
2017-10-06T05:01:14.179Z,3.30
2017-10-06T05:03:41.754Z,3.20
2017-10-06T05:06:09.327Z,3.67
2017-10-06T05:08:36.915Z,3.47
2017-10-06T05:11:05.267Z,3.63
2017-10-06T05:13:32.842Z,3.00
2017-10-06T05:16:01.186Z,4.10
2017-10-06T05:18:28.764Z,3.73
2017-10-06T05:20:56.364Z,3.60
2017-10-06T05:23:24.043Z,3.00
2017-10-06T05:25:51.609Z,2.87
2017-10-06T05:28:19.207Z,3.33
2017-10-06T05:30:46.787Z,3.43
2017-10-06T05:33:15.179Z,3.53
2017-10-06T05:35:43.731Z,3.87
2017-10-06T05:38:11.459Z,4.10
2017-10-06T05:40:39.038Z,3.93
2017-10-06T05:43:06.720Z,3.80
2017-10-06T05:45:34.362Z,3.80
2017-10-06T05:48:01.966Z,3.90
2017-10-06T05:50:30.321Z,3.60
2017-10-06T05:52:57.895Z,3.87
2017-10-06T05:55:25.699Z,3.53
2017-10-06T05:57:53.592Z,4.33
2017-10-06T06:00:21.188Z,5.73
2017-10-06T06:02:48.758Z,4.20
2017-10-06T06:05:17.102Z,4.00
2017-10-06T06:07:44.675Z,4.30
2017-10-06T06:10:12.272Z,4.23
2017-10-06T06:12:40.632Z,4.77
2017-10-06T06:15:08.205Z,3.67
2017-10-06T06:17:36.678Z,3.70
2017-10-06T06:20:04.282Z,3.63
2017-10-06T06:22:31.908Z,4.10
2017-10-06T06:25:00.366Z,3.87
2017-10-06T06:27:27.963Z,3.87
2017-10-06T06:29:56.311Z,3.73
2017-10-06T06:32:24.124Z,4.20
2017-10-06T06:34:51.759Z,3.60
2017-10-06T06:37:20.083Z,4.03
2017-10-06T06:39:47.675Z,3.83
2017-10-06T06:42:15.247Z,3.83
2017-10-06T06:44:42.845Z,4.00
2017-10-06T06:47:10.690Z,4.20
2017-10-06T06:49:39.032Z,4.10
2017-10-06T06:52:06.614Z,3.73
2017-10-06T06:54:34.188Z,3.73
2017-10-06T06:57:02.719Z,3.60
2017-10-06T06:59:30.326Z,4.30
2017-10-06T07:01:57.924Z,3.40
2017-10-06T07:04:25.528Z,3.53
2017-10-06T07:06:53.123Z,3.17
2017-10-06T07:09:21.494Z,3.30
2017-10-06T07:11:49.071Z,3.20
2017-10-06T07:14:17.407Z,3.13
2017-10-06T07:16:45.004Z,3.90
2017-10-06T07:19:13.343Z,3.70
2017-10-06T07:21:40.934Z,3.67
2017-10-06T07:24:09.277Z,3.53
2017-10-06T07:26:36.855Z,3.67
2017-10-06T07:29:04.470Z,3.50
2017-10-06T07:31:32.078Z,4.00
2017-10-06T07:33:59.699Z,4.60
2017-10-06T07:36:27.274Z,3.53
2017-10-06T07:38:54.911Z,3.70
2017-10-06T07:41:22.486Z,3.80
2017-10-06T07:43:50.076Z,3.80
2017-10-06T07:46:17.682Z,4.30
2017-10-06T07:48:46.034Z,3.20
2017-10-06T07:51:13.790Z,4.93
2017-10-06T07:53:41.372Z,3.90
2017-10-06T07:56:08.963Z,3.50
2017-10-06T07:58:36.547Z,4.00
2017-10-06T08:01:04.173Z,4.07
2017-10-06T08:03:32.541Z,4.00
2017-10-06T08:06:00.903Z,4.50
2017-10-06T08:08:28.487Z,3.80
2017-10-06T08:10:56.843Z,4.80
2017-10-06T08:13:24.443Z,3.50
2017-10-06T08:15:52.023Z,4.17
2017-10-06T08:18:19.613Z,4.27
2017-10-06T08:20:47.234Z,4.00
2017-10-06T08:23:14.810Z,4.20
2017-10-06T08:25:42.392Z,4.63
2017-10-06T08:28:09.989Z,4.73
2017-10-06T08:30:38.351Z,4.60
2017-10-06T08:33:05.931Z,4.47
2017-10-06T08:35:34.297Z,4.53
2017-10-06T08:38:01.881Z,4.50
2017-10-06T08:40:30.251Z,4.10
2017-10-06T08:42:58.629Z,4.97
2017-10-06T08:45:26.966Z,6.90
2017-10-06T08:47:54.575Z,6.40
2017-10-06T08:50:24.386Z,6.07
2017-10-06T08:52:52.726Z,5.63
2017-10-06T08:55:20.341Z,5.67
2017-10-06T08:57:47.924Z,6.00
2017-10-06T09:00:15.474Z,5.60
2017-10-06T09:02:43.089Z,4.97
2017-10-06T09:05:11.488Z,6.10
2017-10-06T09:07:39.854Z,5.83
2017-10-06T09:10:07.612Z,5.50
2017-10-06T09:12:35.190Z,5.63
2017-10-06T09:15:03.571Z,4.80
2017-10-06T09:17:31.930Z,4.30
2017-10-06T09:19:59.537Z,5.00
2017-10-06T09:22:27.110Z,4.50
2017-10-06T09:24:54.696Z,3.90
2017-10-06T09:27:22.296Z,3.37
2017-10-06T09:29:50.691Z,3.67
2017-10-06T09:32:18.271Z,3.60
2017-10-06T09:34:45.936Z,4.23
2017-10-06T09:37:13.548Z,4.50
2017-10-06T09:39:41.139Z,3.90
2017-10-06T09:42:09.487Z,3.60
2017-10-06T09:44:37.075Z,4.30
2017-10-06T09:47:04.675Z,4.10
2017-10-06T09:49:32.236Z,3.50
2017-10-06T09:51:59.803Z,3.43
2017-10-06T09:54:27.416Z,3.57
2017-10-06T09:56:55.749Z,3.40
2017-10-06T09:59:23.320Z,3.20
2017-10-06T10:01:50.941Z,2.67
2017-10-06T10:04:19.315Z,2.60
2017-10-06T10:06:46.930Z,2.23
2017-10-06T10:09:14.524Z,2.63
2017-10-06T10:11:42.108Z,1.80
2017-10-06T10:14:09.739Z,1.87
2017-10-06T10:16:37.391Z,2.27
2017-10-06T10:19:05.723Z,1.93
2017-10-06T10:21:33.297Z,1.90
2017-10-06T10:24:00.884Z,2.00
2017-10-06T10:26:28.450Z,2.10
2017-10-06T10:28:56.979Z,1.97
2017-10-06T10:31:24.568Z,2.10
2017-10-06T10:33:52.221Z,2.20
2017-10-06T10:36:19.779Z,2.20
2017-10-06T10:38:47.403Z,2.17
2017-10-06T10:41:14.994Z,2.17
2017-10-06T10:43:42.652Z,2.23
2017-10-06T10:46:10.258Z,2.20
2017-10-06T10:48:37.867Z,2.33
2017-10-06T10:51:06.216Z,2.40
2017-10-06T10:53:34.552Z,2.93
2017-10-06T10:56:02.142Z,3.00
2017-10-06T10:58:30.402Z,3.60
2017-10-06T11:00:58.072Z,3.43
2017-10-06T11:03:25.659Z,3.40
2017-10-06T11:05:54.003Z,2.87
2017-10-06T11:08:21.567Z,2.00
2017-10-06T11:10:49.387Z,2.60
2017-10-06T11:13:16.932Z,2.47
2017-10-06T11:15:44.585Z,1.83
2017-10-06T11:18:12.898Z,2.17
2017-10-06T11:20:40.472Z,1.37
2017-10-06T11:23:08.057Z,1.63
2017-10-06T11:25:35.651Z,1.90
2017-10-06T11:28:03.990Z,1.60
2017-10-06T11:30:32.997Z,1.40
2017-10-06T11:33:00.571Z,1.67
2017-10-06T11:35:28.936Z,1.90
2017-10-06T11:37:56.791Z,1.87
2017-10-06T11:40:24.352Z,2.67
2017-10-06T11:42:51.924Z,2.93
2017-10-06T11:45:19.517Z,2.83
2017-10-06T11:47:47.851Z,3.87
2017-10-06T11:50:15.800Z,3.67
2017-10-06T11:52:43.360Z,4.33
2017-10-06T11:55:11.971Z,3.80
2017-10-06T11:57:39.580Z,4.43
2017-10-06T12:00:07.187Z,4.43
2017-10-06T12:02:34.770Z,4.93
2017-10-06T12:05:02.349Z,4.50
2017-10-06T12:07:30.699Z,4.90
2017-10-06T12:09:58.306Z,4.67
2017-10-06T12:12:25.911Z,4.60
2017-10-06T12:14:53.503Z,4.20
2017-10-06T12:17:21.212Z,4.13
2017-10-06T12:19:48.834Z,4.17
2017-10-06T12:22:17.413Z,4.13
2017-10-06T12:24:45.021Z,4.30
2017-10-06T12:27:12.583Z,4.03
2017-10-06T12:29:40.147Z,4.00
2017-10-06T12:32:07.749Z,3.47
2017-10-06T12:34:35.309Z,3.73
2017-10-06T12:37:02.926Z,3.30
2017-10-06T12:39:30.508Z,3.87
2017-10-06T12:41:58.103Z,4.30
2017-10-06T12:44:26.438Z,3.90
2017-10-06T12:46:54.023Z,3.00
2017-10-06T12:49:21.796Z,2.73
2017-10-06T12:51:49.417Z,2.50
2017-10-06T12:54:17.018Z,3.03
2017-10-06T12:56:44.600Z,2.93
2017-10-06T12:59:12.970Z,2.73
2017-10-06T13:01:40.540Z,3.13
2017-10-06T13:04:08.886Z,2.83
2017-10-06T13:06:37.335Z,2.67
2017-10-06T13:09:04.977Z,3.40
2017-10-06T13:11:33.281Z,2.33
2017-10-06T13:14:00.891Z,2.97
2017-10-06T13:16:29.307Z,1.87
2017-10-06T13:18:56.894Z,1.67
2017-10-06T13:21:24.494Z,1.47
2017-10-06T13:23:52.834Z,1.70
2017-10-06T13:26:20.432Z,1.27
2017-10-06T13:28:47.995Z,1.80
2017-10-06T13:31:15.593Z,1.40
2017-10-06T13:33:43.161Z,1.60
2017-10-06T13:36:11.070Z,1.50
2017-10-06T13:38:38.675Z,1.80
2017-10-06T13:41:06.910Z,1.50
2017-10-06T13:43:34.520Z,1.73
2017-10-06T13:46:02.106Z,1.80
2017-10-06T13:48:29.679Z,1.53
2017-10-06T13:50:57.290Z,2.23
2017-10-06T13:53:25.626Z,1.57
2017-10-06T13:55:53.218Z,1.50
2017-10-06T13:58:21.566Z,1.60
2017-10-06T14:00:49.176Z,1.80
2017-10-06T14:03:16.757Z,1.40
2017-10-06T14:05:45.193Z,1.80
2017-10-06T14:08:12.765Z,1.90
2017-10-06T14:10:41.163Z,1.80
2017-10-06T14:13:08.759Z,1.20
2017-10-06T14:15:36.334Z,2.00
2017-10-06T14:18:04.068Z,2.23
2017-10-06T14:20:31.643Z,2.07
2017-10-06T14:22:59.212Z,2.30
2017-10-06T14:25:26.786Z,1.90
2017-10-06T14:27:54.391Z,1.40
2017-10-06T14:30:21.959Z,1.87
2017-10-06T14:32:49.565Z,1.97
2017-10-06T14:35:18.167Z,2.30
2017-10-06T14:37:45.731Z,2.20
2017-10-06T14:40:14.078Z,2.03
2017-10-06T14:42:41.668Z,1.70
2017-10-06T14:45:09.493Z,2.63
2017-10-06T14:47:37.081Z,2.07
2017-10-06T14:50:04.896Z,2.50
2017-10-06T14:52:32.775Z,2.40
2017-10-06T14:55:00.359Z,2.10
2017-10-06T14:57:27.988Z,2.43
2017-10-06T14:59:55.551Z,2.10
2017-10-06T15:02:23.128Z,2.73
2017-10-06T15:04:50.728Z,1.97
2017-10-06T15:07:18.323Z,2.50
2017-10-06T15:09:45.899Z,2.70
2017-10-06T15:12:13.506Z,2.40
2017-10-06T15:14:41.087Z,2.67
2017-10-06T15:17:09.481Z,2.77
2017-10-06T15:19:37.848Z,2.50
2017-10-06T15:22:06.223Z,4.50
2017-10-06T15:24:33.823Z,2.73
2017-10-06T15:27:01.415Z,2.60
2017-10-06T15:29:29.009Z,2.30
2017-10-06T15:31:56.603Z,2.40
2017-10-06T15:34:24.607Z,2.57
2017-10-06T15:36:52.174Z,2.70
2017-10-06T15:39:19.767Z,3.20
2017-10-06T15:41:48.240Z,2.23
2017-10-06T15:44:16.621Z,3.00
2017-10-06T15:46:44.307Z,3.00
2017-10-06T15:49:12.645Z,2.33
2017-10-06T15:51:40.234Z,3.13
2017-10-06T15:54:08.603Z,2.90
2017-10-06T15:56:36.943Z,3.20
2017-10-06T15:59:04.520Z,3.87
2017-10-06T16:01:32.119Z,2.83
2017-10-06T16:04:00.475Z,2.77
2017-10-06T16:06:28.074Z,3.10
2017-10-06T16:08:55.675Z,3.13
2017-10-06T16:11:23.252Z,3.20
2017-10-06T16:13:50.841Z,3.13
2017-10-06T16:16:19.191Z,3.60
2017-10-06T16:18:46.776Z,3.30
2017-10-06T16:21:15.173Z,2.80
2017-10-06T16:23:43.570Z,4.37
2017-10-06T16:26:11.156Z,4.50
2017-10-06T16:28:39.027Z,7.60
2017-10-06T16:31:06.609Z,7.57
2017-10-06T16:33:34.171Z,5.30
2017-10-06T16:36:01.777Z,5.33
2017-10-06T16:38:29.352Z,5.63
2017-10-06T16:40:57.729Z,10.07
2017-10-06T16:43:25.334Z,4.20
2017-10-06T16:45:52.966Z,3.10
2017-10-06T16:48:21.235Z,2.50
2017-10-06T16:50:48.792Z,4.30
2017-10-06T16:53:16.412Z,2.90
2017-10-06T16:55:44.769Z,2.23
2017-10-06T16:58:12.377Z,2.47
2017-10-06T17:00:39.970Z,2.33
2017-10-06T17:03:07.574Z,2.50
2017-10-06T17:05:35.970Z,2.73
2017-10-06T17:08:03.545Z,2.40
2017-10-06T17:10:31.130Z,2.60
2017-10-06T17:12:58.725Z,3.47
2017-10-06T17:15:26.399Z,2.40
2017-10-06T17:17:54.754Z,2.20
2017-10-06T17:20:22.357Z,2.57
2017-10-06T17:22:50.712Z,2.67
2017-10-06T17:25:18.315Z,2.63
2017-10-06T17:27:46.668Z,2.63
2017-10-06T17:30:15.026Z,3.03
2017-10-06T17:32:42.731Z,3.07
2017-10-06T17:35:10.317Z,2.43
2017-10-06T17:37:37.907Z,2.47
2017-10-06T17:40:05.485Z,2.23
2017-10-06T17:42:34.042Z,2.40
2017-10-06T17:45:01.670Z,2.50
2017-10-06T17:47:29.920Z,2.10
2017-10-06T17:49:58.404Z,2.77
2017-10-06T17:52:26.765Z,2.40
2017-10-06T17:54:54.370Z,2.53
2017-10-06T17:57:22.733Z,2.43
2017-10-06T17:59:50.419Z,2.10
2017-10-06T18:02:18.011Z,2.77
2017-10-06T18:04:45.616Z,2.20
2017-10-06T18:07:13.218Z,2.73
2017-10-06T18:09:40.790Z,2.27
2017-10-06T18:12:08.387Z,2.10
2017-10-06T18:14:36.735Z,2.37
2017-10-06T18:17:04.337Z,1.80
2017-10-06T18:19:32.728Z,2.70
2017-10-06T18:22:00.311Z,2.33
2017-10-06T18:24:28.657Z,2.13
2017-10-06T18:26:57.036Z,3.00
2017-10-06T18:29:24.641Z,2.90
2017-10-06T18:31:52.191Z,2.80
2017-10-06T18:34:19.763Z,2.50
2017-10-06T18:36:47.371Z,2.67
2017-10-06T18:39:15.788Z,3.70
2017-10-06T18:41:43.347Z,3.10
2017-10-06T18:44:10.983Z,2.90
2017-10-06T18:46:39.315Z,3.00
2017-10-06T18:49:06.947Z,3.30
2017-10-06T18:51:34.579Z,3.60
2017-10-06T18:54:02.967Z,2.43
2017-10-06T18:56:30.618Z,3.17
2017-10-06T18:58:59.013Z,3.23
2017-10-06T19:01:27.379Z,3.63
2017-10-06T19:03:55.736Z,2.77
2017-10-06T19:06:23.407Z,2.57
2017-10-06T19:08:51.826Z,2.77
2017-10-06T19:11:19.420Z,3.00
2017-10-06T19:13:47.026Z,3.33
2017-10-06T19:16:15.404Z,2.93
2017-10-06T19:18:43.748Z,3.53
2017-10-06T19:21:11.331Z,2.97
2017-10-06T19:23:38.930Z,2.57
2017-10-06T19:26:06.811Z,3.10
2017-10-06T19:28:34.523Z,2.53
2017-10-06T19:31:02.099Z,2.47
2017-10-06T19:33:30.438Z,3.07
2017-10-06T19:35:58.572Z,2.13
2017-10-06T19:38:26.183Z,2.60
2017-10-06T19:40:53.798Z,2.57
2017-10-06T19:43:21.366Z,2.47
2017-10-06T19:45:48.963Z,2.30
2017-10-06T19:48:16.637Z,2.40
2017-10-06T19:50:44.207Z,3.30
2017-10-06T19:53:11.808Z,3.10
2017-10-06T19:55:39.509Z,3.90
2017-10-06T19:58:08.403Z,3.43
2017-10-06T20:00:36.088Z,2.43
2017-10-06T20:03:03.706Z,2.00
2017-10-06T20:05:31.325Z,2.50
2017-10-06T20:07:59.669Z,2.00
2017-10-06T20:10:30.203Z,2.10
2017-10-06T20:12:58.521Z,2.63
2017-10-06T20:15:26.858Z,2.07
2017-10-06T20:17:54.439Z,2.60
2017-10-06T20:20:22.847Z,2.50
2017-10-06T20:22:50.432Z,2.63
2017-10-06T20:25:18.022Z,3.00
2017-10-06T20:27:45.647Z,2.80
2017-10-06T20:30:14.014Z,2.77
2017-10-06T20:32:41.635Z,2.07
2017-10-06T20:35:09.227Z,3.10
2017-10-06T20:37:37.625Z,2.67
2017-10-06T20:40:05.223Z,2.80
2017-10-06T20:42:32.819Z,2.70
2017-10-06T20:45:01.196Z,2.73
2017-10-06T20:47:29.596Z,3.03
2017-10-06T20:49:57.227Z,3.10
2017-10-06T20:52:24.887Z,3.47
2017-10-06T20:54:52.487Z,2.73
2017-10-06T20:57:22.927Z,2.63
2017-10-06T20:59:50.520Z,2.70
2017-10-06T21:02:18.131Z,2.60
2017-10-06T21:04:46.476Z,2.90
2017-10-06T21:07:14.076Z,2.70
2017-10-06T21:09:41.651Z,2.80
2017-10-06T21:12:09.352Z,3.00
2017-10-06T21:14:36.937Z,3.10
2017-10-06T21:17:05.322Z,3.53
2017-10-06T21:19:33.698Z,3.20
2017-10-06T21:22:02.048Z,2.90
2017-10-06T21:24:29.684Z,3.77
2017-10-06T21:26:57.278Z,3.37
2017-10-06T21:29:24.903Z,4.03
2017-10-06T21:31:52.503Z,3.37
2017-10-06T21:34:20.099Z,3.13
2017-10-06T21:36:47.680Z,3.40
2017-10-06T21:39:15.293Z,2.90
2017-10-06T21:41:42.872Z,3.10
2017-10-06T21:44:11.228Z,3.10
2017-10-06T21:46:38.838Z,2.87
2017-10-06T21:49:06.461Z,3.27
2017-10-06T21:51:34.193Z,3.70
2017-10-06T21:54:01.783Z,3.70
2017-10-06T21:56:29.374Z,3.90
2017-10-06T21:58:57.718Z,3.90
2017-10-06T22:01:25.296Z,3.97
2017-10-06T22:03:53.642Z,4.53
2017-10-06T22:06:21.521Z,4.17
2017-10-06T22:08:49.129Z,4.00
2017-10-06T22:11:16.708Z,4.10
2017-10-06T22:13:44.316Z,4.60
2017-10-06T22:16:11.908Z,3.70
2017-10-06T22:18:39.491Z,3.77
2017-10-06T22:21:07.084Z,3.97
2017-10-06T22:23:34.678Z,3.70
2017-10-06T22:26:03.039Z,4.83
2017-10-06T22:28:30.604Z,4.50
2017-10-06T22:30:58.193Z,6.50
2017-10-06T22:33:25.770Z,5.23
2017-10-06T22:35:53.553Z,5.63
2017-10-06T22:38:21.141Z,7.20
2017-10-06T22:40:48.719Z,7.70
2017-10-06T22:43:17.073Z,8.23
2017-10-06T22:45:44.646Z,7.83
2017-10-06T22:48:12.278Z,7.77
2017-10-06T22:50:39.870Z,7.93
2017-10-06T22:53:07.465Z,6.97
2017-10-06T22:55:35.066Z,7.90
2017-10-06T22:58:02.671Z,7.90
2017-10-06T23:00:31.023Z,7.37
2017-10-06T23:02:58.634Z,8.47
2017-10-06T23:05:26.231Z,7.60
2017-10-06T23:07:53.803Z,8.60
2017-10-06T23:10:21.392Z,8.47
2017-10-06T23:12:48.965Z,7.70
2017-10-06T23:15:17.323Z,8.20
2017-10-06T23:17:44.909Z,7.93
2017-10-06T23:20:13.222Z,7.93
2017-10-06T23:22:40.906Z,8.27
2017-10-06T23:25:08.482Z,8.00
2017-10-06T23:27:36.418Z,8.03
2017-10-06T23:30:04.010Z,9.10
2017-10-06T23:32:32.460Z,8.83
2017-10-06T23:35:00.026Z,7.93
2017-10-06T23:37:27.640Z,9.67
2017-10-06T23:39:55.975Z,9.10
2017-10-06T23:42:23.553Z,9.53
2017-10-06T23:44:51.158Z,10.30
2017-10-06T23:47:18.739Z,11.00
2017-10-06T23:49:46.316Z,10.37
2017-10-06T23:52:13.919Z,10.57
2017-10-06T23:54:42.265Z,11.50
2017-10-06T23:57:09.850Z,10.73
2017-10-06T23:59:37.440Z,10.83
